Circle Line Brooklyn — WDE8160 — position and weather

sailwx.info

Track history (hours):
 
Tides and Currents Weather Stations Pressure Air Temp Water Temp Dewpoint Dewpoint Depression Visibility Wind Speed Wind Dir Waves Ship Positions

Circle Line Brooklyn

Owner: Circle Line Sight Seeing Yachts Inc., New York, NY. More information available from US FCC via Universal Licensing System and Coast Guard Vessel Documentation Center.

Last reported at 2018-Jan-01 05:33 UTC. Time now 2018-Jan-18 17:54 UTC.
Position N 40°46' W 074°00'.
Warning: this ship's position is 17 days out of date.

Length 47 m; draft 2.1 m.

Type: Passenger vessel. MMSI: 367402250.

Date/timePositionNaut miles runAvg speedWind from/ knotsBaromVisibWave heightAir tempDewpointWater temp
2018-Jan-01 05:33N 40°46' W 074°00'111.0
2018-Jan-01 05:27N 40°45' W 074°01'3 7.5
2018-Jan-01 05:00N 40°42' W 074°02'2 2.2
2018-Jan-01 04:00N 40°42' W 073°59'2 4.2
2018-Jan-01 03:30N 40°44' W 074°01'0 0.9
2018-Jan-01 03:00N 40°44' W 074°01'1 3.0
2018-Jan-01 02:30N 40°43' W 074°02'3 0.5
2017-Dec-31 20:01N 40°46' W 074°00'0 0.0
2017-Dec-31 19:57N 40°46' W 074°00'0 0.0
2017-Dec-31 19:22N 40°46' W 074°00'3 1.8
2017-Dec-31 17:58N 40°44' W 073°58'4 9.5
2017-Dec-31 17:30N 40°41' W 074°03'5 0.2
2017-Dec-30 19:15N 40°46' W 074°00'4 2.5
2017-Dec-30 17:44N 40°42' W 073°60'210.1
2017-Dec-30 17:31N 40°41' W 074°03'3 1.7
2017-Dec-30 15:46N 40°44' W 074°01'311.5
2017-Dec-30 15:30N 40°41' W 074°03'5 0.4
2017-Dec-30 02:11N 40°46' W 074°00'0 0.0
2017-Dec-30 01:55N 40°46' W 074°00'4 9.8
2017-Dec-30 01:31N 40°42' W 074°02'4 7.4
2017-Dec-30 01:00N 40°44' W 073°58'3 6.5
2017-Dec-30 00:30N 40°42' W 074°01'4 7.2
2017-Dec-30 00:00N 40°46' W 074°00'0 0.0
2017-Dec-29 23:26N 40°46' W 074°00'0 0.0
2017-Dec-29 22:50N 40°46' W 074°00'0 0.0
2017-Dec-29 22:20N 40°46' W 074°00'0 0.0
2017-Dec-29 21:56N 40°46' W 074°00'0 0.0
2017-Dec-29 21:27N 40°46' W 074°00'3 7.3
2017-Dec-29 20:59N 40°42' W 073°59'3 5.7
2017-Dec-29 20:30N 40°41' W 074°03'5 3.3
2017-Dec-29 18:50N 40°46' W 074°00'2 1.7
2017-Dec-29 17:34N 40°45' W 073°57'114.2
2017-Dec-29 17:29N 40°44' W 073°58'4 8.7
2017-Dec-29 17:00N 40°42' W 074°02'5 0.3
2017-Dec-29 02:14N 40°46' W 074°00'1 2.4
2017-Dec-29 01:42N 40°45' W 074°01'212.5
2017-Dec-29 01:31N 40°42' W 074°02'3 5.3
2017-Dec-29 01:00N 40°43' W 073°58'2 3.2
2017-Dec-29 00:31N 40°42' W 074°00'4 7.4
2017-Dec-29 00:00N 40°46' W 074°00'0 0.0
2017-Dec-28 23:26N 40°46' W 074°00'0 0.0
2017-Dec-28 22:32N 40°46' W 074°00'0 0.0
2017-Dec-28 22:20N 40°46' W 074°00'0 0.0
2017-Dec-28 21:34N 40°46' W 074°00'0 1.4
2017-Dec-28 21:28N 40°46' W 074°00'3 7.1
2017-Dec-28 21:00N 40°43' W 073°58'3 6.3
2017-Dec-28 20:31N 40°42' W 074°02'4 3.9
2017-Dec-28 19:22N 40°46' W 074°00'0 0.0
2017-Dec-28 18:55N 40°46' W 074°00'2 1.4
2017-Dec-28 17:29N 40°45' W 073°58'612.2
2017-Dec-28 17:01N 40°41' W 074°03'5 0.3
2017-Dec-27 21:24N 40°46' W 074°00'4 9.8
2017-Dec-27 21:00N 40°42' W 074°01'1 1.7
2017-Dec-27 20:31N 40°42' W 074°02'4 8.9
2017-Dec-27 20:00N 40°46' W 074°00'0 0.2
2017-Dec-27 19:19N 40°46' W 074°00'0 0.0
2017-Dec-27 18:52N 40°46' W 074°00'2 1.4
2017-Dec-27 17:26N 40°45' W 073°57'613.1
2017-Dec-27 17:01N 40°41' W 074°03'5 0.2
2017-Dec-26 19:20N 40°46' W 074°00'2 1.6
2017-Dec-26 18:00N 40°45' W 073°58'510.4
2017-Dec-26 17:30N 40°42' W 074°02'5 3.8
2017-Dec-26 16:20N 40°46' W 074°00'0 0.0
2017-Dec-26 16:00N 40°46' W 074°00'5 9.7
2017-Dec-26 15:30N 40°41' W 074°03'5 0.1
2017-Dec-25 01:52N 40°46' W 074°00'3 7.3
2017-Dec-25 01:31N 40°43' W 074°02'3 6.6
2017-Dec-25 01:00N 40°45' W 073°58'510.7
2017-Dec-25 00:30N 40°41' W 074°03'510.0
2017-Dec-25 00:00N 40°46' W 074°00'0 0.0
2017-Dec-24 23:30N 40°46' W 074°00'0 0.0
2017-Dec-24 23:00N 40°46' W 074°00'0 0.0
2017-Dec-24 22:30N 40°46' W 074°00'0 0.0
2017-Dec-24 22:00N 40°46' W 074°00'4 7.1
2017-Dec-24 21:30N 40°42' W 073°60'2 4.1
2017-Dec-24 21:01N 40°41' W 074°02'5 9.3
2017-Dec-24 20:30N 40°46' W 074°00'0 0.0
2017-Dec-24 20:00N 40°46' W 074°00'0 0.5
2017-Dec-24 19:30N 40°46' W 074°00'713.8
2017-Dec-24 19:00N 40°52' W 073°56'6 8.4
2017-Dec-24 18:18N 40°46' W 073°57'310.7
2017-Dec-24 18:00N 40°43' W 073°58'3 7.0
2017-Dec-24 17:31N 40°42' W 074°02'4 8.6
2017-Dec-24 17:00N 40°46' W 074°00'0 0.0
2017-Dec-24 16:30N 40°46' W 074°00'0 0.0
2017-Dec-23 19:27N 40°46' W 074°00'1 1.9
2017-Dec-23 19:00N 40°45' W 074°01'2 4.2
2017-Dec-23 18:30N 40°45' W 073°58'0 0.2
2017-Dec-23 18:00N 40°45' W 073°58'5 9.3
2017-Dec-23 17:29N 40°41' W 074°02'5 9.7
2017-Dec-23 17:00N 40°46' W 074°00'0 0.0
2017-Dec-23 16:28N 40°46' W 074°00'0 0.0
2017-Dec-23 16:00N 40°46' W 074°00'5 9.8
2017-Dec-23 15:30N 40°41' W 074°02'5 9.4
2017-Dec-23 15:00N 40°46' W 074°00'0 0.0
2017-Dec-23 14:27N 40°46' W 074°00'0 0.0
2017-Dec-23 14:00N 40°46' W 074°00'0 0.0
2017-Dec-23 13:30N 40°46' W 074°00'0 0.0
2017-Dec-23 13:00N 40°46' W 074°00'0 0.0
2017-Dec-23 12:30N 40°46' W 074°00'0 0.0
2017-Dec-22 19:26N 40°46' W 074°00'512.1
2017-Dec-22 18:59N 40°51' W 073°57'5 5.9
2017-Dec-22 18:10N 40°46' W 073°57'210.2
2017-Dec-22 18:00N 40°44' W 073°58'4 8.4
2017-Dec-22 17:31N 40°42' W 074°02'4 8.0
2017-Dec-22 16:58N 40°46' W 074°00'0 0.0
2017-Dec-22 16:25N 40°46' W 074°00'0 0.0
2017-Dec-22 16:00N 40°46' W 074°00'5 9.3
2017-Dec-22 15:30N 40°41' W 074°02'5 8.9
2017-Dec-22 15:00N 40°46' W 074°00'0 0.0
2017-Dec-22 14:29N 40°46' W 074°00'0 0.0
2017-Dec-22 13:59N 40°46' W 074°00'0 0.0
2017-Dec-22 13:29N 40°46' W 074°00'  
Track history (hours):
 
Tides and Currents Weather Stations Pressure Air Temp Water Temp Dewpoint Dewpoint Depression Visibility Wind Speed Wind Dir Waves Ship Positions

Circle Line Brooklyn

Owner: Circle Line Sight Seeing Yachts Inc., New York, NY. More information available from US FCC via Universal Licensing System and Coast Guard Vessel Documentation Center.

Last reported at 2018-Jan-01 05:33 UTC. Time now 2018-Jan-18 17:54 UTC.
Position N 40°46' W 074°00'.
Warning: this ship's position is 17 days out of date.

Length 47 m; draft 2.1 m.

Type: Passenger vessel. MMSI: 367402250.

Date/timePositionNaut miles runAvg speedWind from/ knotsBaromVisibWave heightAir tempDewpointWater temp
2018-Jan-01 05:33N 40°46' W 074°00'111.0
2018-Jan-01 05:27N 40°45' W 074°01'3 7.5
2018-Jan-01 05:00N 40°42' W 074°02'2 2.2
2018-Jan-01 04:00N 40°42' W 073°59'2 4.2
2018-Jan-01 03:30N 40°44' W 074°01'0 0.9
2018-Jan-01 03:00N 40°44' W 074°01'1 3.0
2018-Jan-01 02:30N 40°43' W 074°02'3 0.5
2017-Dec-31 20:01N 40°46' W 074°00'0 0.0
2017-Dec-31 19:57N 40°46' W 074°00'0 0.0
2017-Dec-31 19:22N 40°46' W 074°00'3 1.8
2017-Dec-31 17:58N 40°44' W 073°58'4 9.5
2017-Dec-31 17:30N 40°41' W 074°03'5 0.2
2017-Dec-30 19:15N 40°46' W 074°00'4 2.5
2017-Dec-30 17:44N 40°42' W 073°60'210.1
2017-Dec-30 17:31N 40°41' W 074°03'3 1.7
2017-Dec-30 15:46N 40°44' W 074°01'311.5
2017-Dec-30 15:30N 40°41' W 074°03'5 0.4
2017-Dec-30 02:11N 40°46' W 074°00'0 0.0
2017-Dec-30 01:55N 40°46' W 074°00'4 9.8
2017-Dec-30 01:31N 40°42' W 074°02'4 7.4
2017-Dec-30 01:00N 40°44' W 073°58'3 6.5
2017-Dec-30 00:30N 40°42' W 074°01'4 7.2
2017-Dec-30 00:00N 40°46' W 074°00'0 0.0
2017-Dec-29 23:26N 40°46' W 074°00'0 0.0
2017-Dec-29 22:50N 40°46' W 074°00'0 0.0
2017-Dec-29 22:20N 40°46' W 074°00'0 0.0
2017-Dec-29 21:56N 40°46' W 074°00'0 0.0
2017-Dec-29 21:27N 40°46' W 074°00'3 7.3
2017-Dec-29 20:59N 40°42' W 073°59'3 5.7
2017-Dec-29 20:30N 40°41' W 074°03'5 3.3
2017-Dec-29 18:50N 40°46' W 074°00'2 1.7
2017-Dec-29 17:34N 40°45' W 073°57'114.2
2017-Dec-29 17:29N 40°44' W 073°58'4 8.7
2017-Dec-29 17:00N 40°42' W 074°02'5 0.3
2017-Dec-29 02:14N 40°46' W 074°00'1 2.4
2017-Dec-29 01:42N 40°45' W 074°01'212.5
2017-Dec-29 01:31N 40°42' W 074°02'3 5.3
2017-Dec-29 01:00N 40°43' W 073°58'2 3.2
2017-Dec-29 00:31N 40°42' W 074°00'4 7.4
2017-Dec-29 00:00N 40°46' W 074°00'0 0.0
2017-Dec-28 23:26N 40°46' W 074°00'0 0.0
2017-Dec-28 22:32N 40°46' W 074°00'0 0.0
2017-Dec-28 22:20N 40°46' W 074°00'0 0.0
2017-Dec-28 21:34N 40°46' W 074°00'0 1.4
2017-Dec-28 21:28N 40°46' W 074°00'3 7.1
2017-Dec-28 21:00N 40°43' W 073°58'3 6.3
2017-Dec-28 20:31N 40°42' W 074°02'4 3.9
2017-Dec-28 19:22N 40°46' W 074°00'0 0.0
2017-Dec-28 18:55N 40°46' W 074°00'2 1.4
2017-Dec-28 17:29N 40°45' W 073°58'612.2
2017-Dec-28 17:01N 40°41' W 074°03'5 0.3
2017-Dec-27 21:24N 40°46' W 074°00'4 9.8
2017-Dec-27 21:00N 40°42' W 074°01'1 1.7
2017-Dec-27 20:31N 40°42' W 074°02'4 8.9
2017-Dec-27 20:00N 40°46' W 074°00'0 0.2
2017-Dec-27 19:19N 40°46' W 074°00'0 0.0
2017-Dec-27 18:52N 40°46' W 074°00'2 1.4
2017-Dec-27 17:26N 40°45' W 073°57'613.1
2017-Dec-27 17:01N 40°41' W 074°03'5 0.2
2017-Dec-26 19:20N 40°46' W 074°00'2 1.6
2017-Dec-26 18:00N 40°45' W 073°58'510.4
2017-Dec-26 17:30N 40°42' W 074°02'5 3.8
2017-Dec-26 16:20N 40°46' W 074°00'0 0.0
2017-Dec-26 16:00N 40°46' W 074°00'5 9.7
2017-Dec-26 15:30N 40°41' W 074°03'5 0.1
2017-Dec-25 01:52N 40°46' W 074°00'3 7.3
2017-Dec-25 01:31N 40°43' W 074°02'3 6.6
2017-Dec-25 01:00N 40°45' W 073°58'510.7
2017-Dec-25 00:30N 40°41' W 074°03'510.0
2017-Dec-25 00:00N 40°46' W 074°00'0 0.0
2017-Dec-24 23:30N 40°46' W 074°00'0 0.0
2017-Dec-24 23:00N 40°46' W 074°00'0 0.0
2017-Dec-24 22:30N 40°46' W 074°00'0 0.0
2017-Dec-24 22:00N 40°46' W 074°00'4 7.1
2017-Dec-24 21:30N 40°42' W 073°60'2 4.1
2017-Dec-24 21:01N 40°41' W 074°02'5 9.3
2017-Dec-24 20:30N 40°46' W 074°00'0 0.0
2017-Dec-24 20:00N 40°46' W 074°00'0 0.5
2017-Dec-24 19:30N 40°46' W 074°00'713.8
2017-Dec-24 19:00N 40°52' W 073°56'6 8.4
2017-Dec-24 18:18N 40°46' W 073°57'310.7
2017-Dec-24 18:00N 40°43' W 073°58'3 7.0
2017-Dec-24 17:31N 40°42' W 074°02'4 8.6
2017-Dec-24 17:00N 40°46' W 074°00'0 0.0
2017-Dec-24 16:30N 40°46' W 074°00'0 0.0
2017-Dec-23 19:27N 40°46' W 074°00'1 1.9
2017-Dec-23 19:00N 40°45' W 074°01'2 4.2
2017-Dec-23 18:30N 40°45' W 073°58'0 0.2
2017-Dec-23 18:00N 40°45' W 073°58'5 9.3
2017-Dec-23 17:29N 40°41' W 074°02'5 9.7
2017-Dec-23 17:00N 40°46' W 074°00'0 0.0
2017-Dec-23 16:28N 40°46' W 074°00'0 0.0
2017-Dec-23 16:00N 40°46' W 074°00'5 9.8
2017-Dec-23 15:30N 40°41' W 074°02'5 9.4
2017-Dec-23 15:00N 40°46' W 074°00'0 0.0
2017-Dec-23 14:27N 40°46' W 074°00'0 0.0
2017-Dec-23 14:00N 40°46' W 074°00'0 0.0
2017-Dec-23 13:30N 40°46' W 074°00'0 0.0
2017-Dec-23 13:00N 40°46' W 074°00'0 0.0
2017-Dec-23 12:30N 40°46' W 074°00'0 0.0
2017-Dec-22 19:26N 40°46' W 074°00'512.1
2017-Dec-22 18:59N 40°51' W 073°57'5 5.9
2017-Dec-22 18:10N 40°46' W 073°57'210.2
2017-Dec-22 18:00N 40°44' W 073°58'4 8.4
2017-Dec-22 17:31N 40°42' W 074°02'4 8.0
2017-Dec-22 16:58N 40°46' W 074°00'0 0.0
2017-Dec-22 16:25N 40°46' W 074°00'0 0.0
2017-Dec-22 16:00N 40°46' W 074°00'5 9.3
2017-Dec-22 15:30N 40°41' W 074°02'5 8.9
2017-Dec-22 15:00N 40°46' W 074°00'0 0.0
2017-Dec-22 14:29N 40°46' W 074°00'0 0.0
2017-Dec-22 13:59N 40°46' W 074°00'0 0.0
2017-Dec-22 13:29N 40°46' W 074°00'  

Dump ship's entire track history